sensor_id;sensor_type;location;lat;lon;timestamp;temperature;humidity
2465;DHT22;1244;54.326;10.074;2023-04-30T00:01:32;4.60;99.90
2465;DHT22;1244;54.326;10.074;2023-04-30T00:03:58;4.80;99.90
2465;DHT22;1244;54.326;10.074;2023-04-30T00:06:23;4.80;99.90
2465;DHT22;1244;54.326;10.074;2023-04-30T00:08:49;4.80;99.90
2465;DHT22;1244;54.326;10.074;2023-04-30T00:11:14;4.70;99.90
2465;DHT22;1244;54.326;10.074;2023-04-30T00:13:40;4.60;99.90
2465;DHT22;1244;54.326;10.074;2023-04-30T00:16:07;4.60;99.90
2465;DHT22;1244;54.326;10.074;2023-04-30T00:18:32;4.50;99.90
2465;DHT22;1244;54.326;10.074;2023-04-30T00:20:58;4.60;99.90
2465;DHT22;1244;54.326;10.074;2023-04-30T00:23:23;4.60;99.90
2465;DHT22;1244;54.326;10.074;2023-04-30T00:25:49;4.60;99.90
2465;DHT22;1244;54.326;10.074;2023-04-30T00:28:14;4.70;99.90
2465;DHT22;1244;54.326;10.074;2023-04-30T00:30:40;4.60;99.90
2465;DHT22;1244;54.326;10.074;2023-04-30T00:33:05;4.50;99.90
2465;DHT22;1244;54.326;10.074;2023-04-30T00:35:31;4.60;99.90
2465;DHT22;1244;54.326;10.074;2023-04-30T00:37:57;4.60;99.90
2465;DHT22;1244;54.326;10.074;2023-04-30T00:40:22;4.60;99.90
2465;DHT22;1244;54.326;10.074;2023-04-30T00:42:48;4.60;99.90
2465;DHT22;1244;54.326;10.074;2023-04-30T00:45:13;4.70;99.90
2465;DHT22;1244;54.326;10.074;2023-04-30T00:47:39;4.70;99.90
2465;DHT22;1244;54.326;10.074;2023-04-30T00:50:05;4.50;99.90
2465;DHT22;1244;54.326;10.074;2023-04-30T00:52:31;4.50;99.90
2465;DHT22;1244;54.326;10.074;2023-04-30T00:54:57;4.40;99.90
2465;DHT22;1244;54.326;10.074;2023-04-30T00:57:22;4.40;99.90
2465;DHT22;1244;54.326;10.074;2023-04-30T00:59:49;4.50;99.90
2465;DHT22;1244;54.326;10.074;2023-04-30T01:02:16;4.50;99.90
2465;DHT22;1244;54.326;10.074;2023-04-30T01:04:42;4.50;99.90
2465;DHT22;1244;54.326;10.074;2023-04-30T01:07:08;4.60;99.90
2465;DHT22;1244;54.326;10.074;2023-04-30T01:09:33;4.50;99.90
2465;DHT22;1244;54.326;10.074;2023-04-30T01:12:11;4.60;99.90
2465;DHT22;1244;54.326;10.074;2023-04-30T01:17:54;4.40;99.90
2465;DHT22;1244;54.326;10.074;2023-04-30T01:20:21;4.40;99.90
2465;DHT22;1244;54.326;10.074;2023-04-30T01:22:54;4.30;99.90
2465;DHT22;1244;54.326;10.074;2023-04-30T01:28:21;4.20;99.90
2465;DHT22;1244;54.326;10.074;2023-04-30T01:30:49;4.40;99.90
2465;DHT22;1244;54.326;10.074;2023-04-30T01:33:14;4.30;99.90
2465;DHT22;1244;54.326;10.074;2023-04-30T01:41:19;4.30;99.90
2465;DHT22;1244;54.326;10.074;2023-04-30T01:49:05;4.30;99.90
2465;DHT22;1244;54.326;10.074;2023-04-30T01:51:40;4.30;99.90
2465;DHT22;1244;54.326;10.074;2023-04-30T01:54:22;4.20;99.90
2465;DHT22;1244;54.326;10.074;2023-04-30T01:57:06;4.20;99.90
2465;DHT22;1244;54.326;10.074;2023-04-30T01:59:34;4.00;99.90
2465;DHT22;1244;54.326;10.074;2023-04-30T02:02:00;4.10;99.90
2465;DHT22;1244;54.326;10.074;2023-04-30T02:04:25;4.20;99.90
2465;DHT22;1244;54.326;10.074;2023-04-30T02:06:51;4.30;99.90
2465;DHT22;1244;54.326;10.074;2023-04-30T02:09:16;4.20;99.90
2465;DHT22;1244;54.326;10.074;2023-04-30T02:11:42;4.40;99.90
2465;DHT22;1244;54.326;10.074;2023-04-30T02:14:08;4.40;99.90
2465;DHT22;1244;54.326;10.074;2023-04-30T02:16:34;4.50;99.90
2465;DHT22;1244;54.326;10.074;2023-04-30T02:19:00;4.60;99.90
2465;DHT22;1244;54.326;10.074;2023-04-30T02:21:25;4.70;99.90
2465;DHT22;1244;54.326;10.074;2023-04-30T02:23:51;4.70;99.90
2465;DHT22;1244;54.326;10.074;2023-04-30T02:26:17;4.50;99.90
2465;DHT22;1244;54.326;10.074;2023-04-30T02:28:42;4.70;99.90
2465;DHT22;1244;54.326;10.074;2023-04-30T02:31:08;4.70;99.90
2465;DHT22;1244;54.326;10.074;2023-04-30T02:33:33;4.60;99.90
2465;DHT22;1244;54.326;10.074;2023-04-30T02:35:59;4.60;99.90
2465;DHT22;1244;54.326;10.074;2023-04-30T02:38:25;4.60;99.90
2465;DHT22;1244;54.326;10.074;2023-04-30T02:40:50;4.60;99.90
2465;DHT22;1244;54.326;10.074;2023-04-30T02:43:16;4.60;99.90
2465;DHT22;1244;54.326;10.074;2023-04-30T02:45:41;4.60;99.90
2465;DHT22;1244;54.326;10.074;2023-04-30T02:48:07;4.50;99.90
2465;DHT22;1244;54.326;10.074;2023-04-30T02:50:32;4.50;99.90
2465;DHT22;1244;54.326;10.074;2023-04-30T02:52:58;4.40;99.90
2465;DHT22;1244;54.326;10.074;2023-04-30T02:55:24;4.30;99.90
2465;DHT22;1244;54.326;10.074;2023-04-30T02:57:49;4.30;99.90
2465;DHT22;1244;54.326;10.074;2023-04-30T03:00:15;4.20;99.90
2465;DHT22;1244;54.326;10.074;2023-04-30T03:02:40;4.20;99.90
2465;DHT22;1244;54.326;10.074;2023-04-30T03:05:06;4.10;99.90
2465;DHT22;1244;54.326;10.074;2023-04-30T03:07:31;3.90;99.90
2465;DHT22;1244;54.326;10.074;2023-04-30T03:09:57;4.00;99.90
2465;DHT22;1244;54.326;10.074;2023-04-30T03:12:22;4.00;99.90
2465;DHT22;1244;54.326;10.074;2023-04-30T03:14:48;3.90;99.90
2465;DHT22;1244;54.326;10.074;2023-04-30T03:17:13;3.70;99.90
2465;DHT22;1244;54.326;10.074;2023-04-30T03:19:39;3.90;99.90
2465;DHT22;1244;54.326;10.074;2023-04-30T03:22:04;3.80;99.90
2465;DHT22;1244;54.326;10.074;2023-04-30T03:24:30;3.80;99.90
2465;DHT22;1244;54.326;10.074;2023-04-30T03:26:55;3.70;99.90
2465;DHT22;1244;54.326;10.074;2023-04-30T03:29:21;3.70;99.90
2465;DHT22;1244;54.326;10.074;2023-04-30T03:31:46;3.60;99.90
2465;DHT22;1244;54.326;10.074;2023-04-30T03:34:12;3.70;99.90
2465;DHT22;1244;54.326;10.074;2023-04-30T03:36:37;3.60;99.90
2465;DHT22;1244;54.326;10.074;2023-04-30T03:39:03;3.60;99.90
2465;DHT22;1244;54.326;10.074;2023-04-30T03:41:29;3.70;99.90
2465;DHT22;1244;54.326;10.074;2023-04-30T03:43:54;3.70;99.90
2465;DHT22;1244;54.326;10.074;2023-04-30T03:46:20;3.70;99.90
2465;DHT22;1244;54.326;10.074;2023-04-30T03:48:46;3.70;99.90
2465;DHT22;1244;54.326;10.074;2023-04-30T03:51:11;3.60;99.90
2465;DHT22;1244;54.326;10.074;2023-04-30T03:53:37;3.70;99.90
2465;DHT22;1244;54.326;10.074;2023-04-30T03:56:02;3.70;99.90
2465;DHT22;1244;54.326;10.074;2023-04-30T03:58:29;3.70;99.90
2465;DHT22;1244;54.326;10.074;2023-04-30T04:00:55;3.60;99.90
2465;DHT22;1244;54.326;10.074;2023-04-30T04:03:20;3.70;99.90
2465;DHT22;1244;54.326;10.074;2023-04-30T04:05:46;3.80;99.90
2465;DHT22;1244;54.326;10.074;2023-04-30T04:08:12;3.80;99.90
2465;DHT22;1244;54.326;10.074;2023-04-30T04:10:38;3.80;99.90
2465;DHT22;1244;54.326;10.074;2023-04-30T04:13:05;3.90;99.90
2465;DHT22;1244;54.326;10.074;2023-04-30T04:15:31;3.90;99.90
2465;DHT22;1244;54.326;10.074;2023-04-30T04:17:56;3.90;99.90
2465;DHT22;1244;54.326;10.074;2023-04-30T04:20:22;3.90;99.90
2465;DHT22;1244;54.326;10.074;2023-04-30T04:22:48;3.90;99.90
2465;DHT22;1244;54.326;10.074;2023-04-30T04:25:13;3.90;99.90
2465;DHT22;1244;54.326;10.074;2023-04-30T04:27:39;4.00;99.90
2465;DHT22;1244;54.326;10.074;2023-04-30T04:30:05;4.00;99.90
2465;DHT22;1244;54.326;10.074;2023-04-30T04:32:31;4.20;99.90
2465;DHT22;1244;54.326;10.074;2023-04-30T04:34:57;4.10;99.90
2465;DHT22;1244;54.326;10.074;2023-04-30T04:37:23;4.30;99.90
2465;DHT22;1244;54.326;10.074;2023-04-30T04:39:48;4.20;99.90
2465;DHT22;1244;54.326;10.074;2023-04-30T04:42:15;4.30;99.90
2465;DHT22;1244;54.326;10.074;2023-04-30T04:44:44;4.30;99.90
2465;DHT22;1244;54.326;10.074;2023-04-30T04:47:09;4.50;99.90
2465;DHT22;1244;54.326;10.074;2023-04-30T04:49:36;4.50;99.90
2465;DHT22;1244;54.326;10.074;2023-04-30T04:52:02;4.60;99.90
2465;DHT22;1244;54.326;10.074;2023-04-30T04:54:28;4.60;99.90
2465;DHT22;1244;54.326;10.074;2023-04-30T04:56:53;4.70;99.90
2465;DHT22;1244;54.326;10.074;2023-04-30T04:59:19;4.70;99.90
2465;DHT22;1244;54.326;10.074;2023-04-30T05:01:45;4.70;99.90
2465;DHT22;1244;54.326;10.074;2023-04-30T05:04:10;4.80;99.90
2465;DHT22;1244;54.326;10.074;2023-04-30T05:06:38;4.70;99.90
2465;DHT22;1244;54.326;10.074;2023-04-30T05:09:03;4.80;99.90
2465;DHT22;1244;54.326;10.074;2023-04-30T05:11:33;4.80;99.90
2465;DHT22;1244;54.326;10.074;2023-04-30T05:13:58;4.90;99.90
2465;DHT22;1244;54.326;10.074;2023-04-30T05:16:24;4.80;99.90
2465;DHT22;1244;54.326;10.074;2023-04-30T05:18:50;4.90;99.90
2465;DHT22;1244;54.326;10.074;2023-04-30T05:21:16;5.00;99.90
2465;DHT22;1244;54.326;10.074;2023-04-30T05:23:43;5.10;99.90
2465;DHT22;1244;54.326;10.074;2023-04-30T05:26:09;5.20;99.90
2465;DHT22;1244;54.326;10.074;2023-04-30T05:28:34;5.30;99.90
2465;DHT22;1244;54.326;10.074;2023-04-30T05:31:00;5.50;99.90
2465;DHT22;1244;54.326;10.074;2023-04-30T05:33:26;5.40;99.90
2465;DHT22;1244;54.326;10.074;2023-04-30T05:35:51;5.50;99.90
2465;DHT22;1244;54.326;10.074;2023-04-30T05:38:17;5.60;99.90
2465;DHT22;1244;54.326;10.074;2023-04-30T05:40:42;5.80;99.90
2465;DHT22;1244;54.326;10.074;2023-04-30T05:43:08;6.10;99.90
2465;DHT22;1244;54.326;10.074;2023-04-30T05:45:33;6.10;99.90
2465;DHT22;1244;54.326;10.074;2023-04-30T05:47:59;6.20;99.90
2465;DHT22;1244;54.326;10.074;2023-04-30T05:50:26;6.30;99.90
2465;DHT22;1244;54.326;10.074;2023-04-30T05:52:51;6.50;99.90
2465;DHT22;1244;54.326;10.074;2023-04-30T05:55:17;6.50;99.90
2465;DHT22;1244;54.326;10.074;2023-04-30T05:57:42;6.60;99.90
2465;DHT22;1244;54.326;10.074;2023-04-30T06:00:08;6.80;99.90
2465;DHT22;1244;54.326;10.074;2023-04-30T06:02:34;6.80;99.90
2465;DHT22;1244;54.326;10.074;2023-04-30T06:04:59;6.90;99.90
2465;DHT22;1244;54.326;10.074;2023-04-30T06:07:27;6.90;99.90
2465;DHT22;1244;54.326;10.074;2023-04-30T06:09:52;7.00;99.90
2465;DHT22;1244;54.326;10.074;2023-04-30T06:12:18;7.20;99.90
2465;DHT22;1244;54.326;10.074;2023-04-30T06:14:43;7.20;99.90
2465;DHT22;1244;54.326;10.074;2023-04-30T06:17:11;7.40;99.90
2465;DHT22;1244;54.326;10.074;2023-04-30T06:19:36;7.60;99.90
2465;DHT22;1244;54.326;10.074;2023-04-30T06:22:03;7.50;99.90
2465;DHT22;1244;54.326;10.074;2023-04-30T06:24:29;7.50;99.90
2465;DHT22;1244;54.326;10.074;2023-04-30T06:26:55;7.60;99.90
2465;DHT22;1244;54.326;10.074;2023-04-30T06:29:20;7.70;99.90
2465;DHT22;1244;54.326;10.074;2023-04-30T06:31:49;7.80;99.90
2465;DHT22;1244;54.326;10.074;2023-04-30T06:34:15;8.10;99.90
2465;DHT22;1244;54.326;10.074;2023-04-30T06:36:40;8.10;99.90
2465;DHT22;1244;54.326;10.074;2023-04-30T06:39:06;8.00;99.90
2465;DHT22;1244;54.326;10.074;2023-04-30T06:41:31;7.90;99.90
2465;DHT22;1244;54.326;10.074;2023-04-30T06:43:57;8.00;99.90
2465;DHT22;1244;54.326;10.074;2023-04-30T06:46:22;8.30;99.90
2465;DHT22;1244;54.326;10.074;2023-04-30T06:48:48;8.40;99.90
2465;DHT22;1244;54.326;10.074;2023-04-30T06:51:13;8.30;99.90
2465;DHT22;1244;54.326;10.074;2023-04-30T06:53:39;8.40;99.90
2465;DHT22;1244;54.326;10.074;2023-04-30T06:56:05;8.60;99.90
2465;DHT22;1244;54.326;10.074;2023-04-30T06:58:30;8.80;99.90
2465;DHT22;1244;54.326;10.074;2023-04-30T07:00:56;8.90;99.90
2465;DHT22;1244;54.326;10.074;2023-04-30T07:03:22;8.50;99.90
2465;DHT22;1244;54.326;10.074;2023-04-30T07:05:48;8.70;99.90
2465;DHT22;1244;54.326;10.074;2023-04-30T07:08:13;8.10;99.90
2465;DHT22;1244;54.326;10.074;2023-04-30T07:10:39;8.20;99.90
2465;DHT22;1244;54.326;10.074;2023-04-30T07:13:05;8.00;99.90
2465;DHT22;1244;54.326;10.074;2023-04-30T07:15:32;8.10;99.90
2465;DHT22;1244;54.326;10.074;2023-04-30T07:17:58;8.10;99.90
2465;DHT22;1244;54.326;10.074;2023-04-30T07:20:23;7.90;99.90
2465;DHT22;1244;54.326;10.074;2023-04-30T07:22:49;8.00;99.90
2465;DHT22;1244;54.326;10.074;2023-04-30T07:25:14;8.10;99.90
2465;DHT22;1244;54.326;10.074;2023-04-30T07:27:40;8.30;99.90
2465;DHT22;1244;54.326;10.074;2023-04-30T07:30:07;8.60;99.90
2465;DHT22;1244;54.326;10.074;2023-04-30T07:32:36;9.00;99.90
2465;DHT22;1244;54.326;10.074;2023-04-30T07:35:03;9.20;99.90
2465;DHT22;1244;54.326;10.074;2023-04-30T07:37:29;9.40;99.90
2465;DHT22;1244;54.326;10.074;2023-04-30T07:39:54;9.60;99.90
2465;DHT22;1244;54.326;10.074;2023-04-30T07:42:21;9.60;99.90
2465;DHT22;1244;54.326;10.074;2023-04-30T07:44:46;9.40;99.90
2465;DHT22;1244;54.326;10.074;2023-04-30T07:47:13;9.10;99.90
2465;DHT22;1244;54.326;10.074;2023-04-30T07:49:38;9.00;99.90
2465;DHT22;1244;54.326;10.074;2023-04-30T07:52:04;9.30;99.90
2465;DHT22;1244;54.326;10.074;2023-04-30T07:54:30;9.20;99.90
2465;DHT22;1244;54.326;10.074;2023-04-30T07:56:56;9.20;99.90
2465;DHT22;1244;54.326;10.074;2023-04-30T07:59:21;8.90;99.90
2465;DHT22;1244;54.326;10.074;2023-04-30T08:01:49;9.00;99.90
2465;DHT22;1244;54.326;10.074;2023-04-30T08:04:15;9.30;99.90
2465;DHT22;1244;54.326;10.074;2023-04-30T08:06:40;9.30;99.90
2465;DHT22;1244;54.326;10.074;2023-04-30T08:09:06;9.50;99.90
2465;DHT22;1244;54.326;10.074;2023-04-30T08:11:31;9.60;99.90
2465;DHT22;1244;54.326;10.074;2023-04-30T08:13:57;9.70;99.90
2465;DHT22;1244;54.326;10.074;2023-04-30T08:16:22;9.70;99.90
2465;DHT22;1244;54.326;10.074;2023-04-30T08:18:48;9.50;99.90
2465;DHT22;1244;54.326;10.074;2023-04-30T08:21:14;9.50;99.90
2465;DHT22;1244;54.326;10.074;2023-04-30T08:23:40;9.50;99.90
2465;DHT22;1244;54.326;10.074;2023-04-30T08:26:05;9.40;99.90
2465;DHT22;1244;54.326;10.074;2023-04-30T08:28:31;9.80;99.90
2465;DHT22;1244;54.326;10.074;2023-04-30T08:30:56;10.40;99.90
2465;DHT22;1244;54.326;10.074;2023-04-30T08:33:22;10.70;99.90
2465;DHT22;1244;54.326;10.074;2023-04-30T08:35:47;11.30;99.90
2465;DHT22;1244;54.326;10.074;2023-04-30T08:38:13;11.30;99.90
2465;DHT22;1244;54.326;10.074;2023-04-30T08:40:39;10.90;99.90
2465;DHT22;1244;54.326;10.074;2023-04-30T08:43:07;11.20;99.90
2465;DHT22;1244;54.326;10.074;2023-04-30T08:45:33;11.10;99.90
2465;DHT22;1244;54.326;10.074;2023-04-30T08:48:00;11.70;99.90
2465;DHT22;1244;54.326;10.074;2023-04-30T08:50:29;11.90;99.90
2465;DHT22;1244;54.326;10.074;2023-04-30T08:52:57;11.90;99.90
2465;DHT22;1244;54.326;10.074;2023-04-30T08:55:25;12.30;99.90
2465;DHT22;1244;54.326;10.074;2023-04-30T08:57:51;12.20;99.90
2465;DHT22;1244;54.326;10.074;2023-04-30T09:00:16;11.40;99.90
2465;DHT22;1244;54.326;10.074;2023-04-30T09:02:46;10.60;99.90
2465;DHT22;1244;54.326;10.074;2023-04-30T09:05:13;10.30;99.90
2465;DHT22;1244;54.326;10.074;2023-04-30T09:07:41;10.70;99.90
2465;DHT22;1244;54.326;10.074;2023-04-30T09:10:17;11.70;99.90
2465;DHT22;1244;54.326;10.074;2023-04-30T09:12:43;11.80;99.90
2465;DHT22;1244;54.326;10.074;2023-04-30T09:15:10;11.70;99.90
2465;DHT22;1244;54.326;10.074;2023-04-30T09:17:37;12.30;99.90
2465;DHT22;1244;54.326;10.074;2023-04-30T09:20:10;12.90;99.90
2465;DHT22;1244;54.326;10.074;2023-04-30T09:22:38;11.90;99.90
2465;DHT22;1244;54.326;10.074;2023-04-30T09:25:05;11.60;99.90
2465;DHT22;1244;54.326;10.074;2023-04-30T09:27:31;11.10;99.90
2465;DHT22;1244;54.326;10.074;2023-04-30T09:29:56;11.70;99.90
2465;DHT22;1244;54.326;10.074;2023-04-30T09:32:22;12.60;99.90
2465;DHT22;1244;54.326;10.074;2023-04-30T09:34:48;13.20;99.90
2465;DHT22;1244;54.326;10.074;2023-04-30T09:37:13;13.20;99.90
2465;DHT22;1244;54.326;10.074;2023-04-30T09:39:51;12.90;99.90
2465;DHT22;1244;54.326;10.074;2023-04-30T09:42:18;12.50;99.90
2465;DHT22;1244;54.326;10.074;2023-04-30T09:44:44;12.90;99.90
2465;DHT22;1244;54.326;10.074;2023-04-30T09:47:17;12.50;99.90
2465;DHT22;1244;54.326;10.074;2023-04-30T09:49:47;12.70;99.90
2465;DHT22;1244;54.326;10.074;2023-04-30T09:52:14;13.70;99.90
2465;DHT22;1244;54.326;10.074;2023-04-30T09:54:40;14.10;99.90
2465;DHT22;1244;54.326;10.074;2023-04-30T09:57:09;14.40;99.90
2465;DHT22;1244;54.326;10.074;2023-04-30T09:59:35;13.90;97.70
2465;DHT22;1244;54.326;10.074;2023-04-30T10:02:07;13.80;99.70
2465;DHT22;1244;54.326;10.074;2023-04-30T10:04:34;14.40;99.90
2465;DHT22;1244;54.326;10.074;2023-04-30T10:07:13;14.90;99.90
2465;DHT22;1244;54.326;10.074;2023-04-30T10:12:22;13.30;96.50
2465;DHT22;1244;54.326;10.074;2023-04-30T10:14:56;13.70;99.20
2465;DHT22;1244;54.326;10.074;2023-04-30T10:17:26;13.80;98.90
2465;DHT22;1244;54.326;10.074;2023-04-30T10:20:03;14.40;98.40
2465;DHT22;1244;54.326;10.074;2023-04-30T10:22:33;13.40;96.60
2465;DHT22;1244;54.326;10.074;2023-04-30T10:24:59;14.20;98.00
2465;DHT22;1244;54.326;10.074;2023-04-30T10:27:25;14.60;98.10
2465;DHT22;1244;54.326;10.074;2023-04-30T10:29:51;14.90;95.80
2465;DHT22;1244;54.326;10.074;2023-04-30T10:32:18;15.50;97.10
2465;DHT22;1244;54.326;10.074;2023-04-30T10:35:18;15.60;98.00
2465;DHT22;1244;54.326;10.074;2023-04-30T10:38:09;16.10;98.90
2465;DHT22;1244;54.326;10.074;2023-04-30T10:40:37;15.50;95.90
2465;DHT22;1244;54.326;10.074;2023-04-30T10:43:03;16.20;96.60
2465;DHT22;1244;54.326;10.074;2023-04-30T10:45:40;15.70;96.00
2465;DHT22;1244;54.326;10.074;2023-04-30T10:48:07;16.00;93.70
2465;DHT22;1244;54.326;10.074;2023-04-30T10:50:39;16.90;96.80
2465;DHT22;1244;54.326;10.074;2023-04-30T10:53:06;17.60;96.30
2465;DHT22;1244;54.326;10.074;2023-04-30T10:55:32;17.30;95.50
2465;DHT22;1244;54.326;10.074;2023-04-30T10:57:58;17.50;91.50
2465;DHT22;1244;54.326;10.074;2023-04-30T11:00:25;16.40;92.70
2465;DHT22;1244;54.326;10.074;2023-04-30T11:02:56;16.70;93.00
2465;DHT22;1244;54.326;10.074;2023-04-30T11:05:35;17.40;93.90
2465;DHT22;1244;54.326;10.074;2023-04-30T11:08:02;18.00;93.40
2465;DHT22;1244;54.326;10.074;2023-04-30T11:10:32;17.40;94.80
2465;DHT22;1244;54.326;10.074;2023-04-30T11:15:33;18.60;82.10
2465;DHT22;1244;54.326;10.074;2023-04-30T11:18:00;18.20;81.60
2465;DHT22;1244;54.326;10.074;2023-04-30T11:20:27;17.90;90.70
2465;DHT22;1244;54.326;10.074;2023-04-30T11:23:15;17.40;94.10
2465;DHT22;1244;54.326;10.074;2023-04-30T11:25:42;16.10;87.60
2465;DHT22;1244;54.326;10.074;2023-04-30T11:28:22;16.20;91.30
2465;DHT22;1244;54.326;10.074;2023-04-30T11:30:53;16.40;90.70
2465;DHT22;1244;54.326;10.074;2023-04-30T11:33:20;16.30;91.20
2465;DHT22;1244;54.326;10.074;2023-04-30T11:35:47;17.40;91.40
2465;DHT22;1244;54.326;10.074;2023-04-30T11:38:16;18.00;83.50
2465;DHT22;1244;54.326;10.074;2023-04-30T11:40:44;18.20;90.50
2465;DHT22;1244;54.326;10.074;2023-04-30T11:43:31;16.90;87.20
2465;DHT22;1244;54.326;10.074;2023-04-30T11:46:09;17.20;86.50
2465;DHT22;1244;54.326;10.074;2023-04-30T11:48:39;18.20;86.40
2465;DHT22;1244;54.326;10.074;2023-04-30T11:51:20;18.60;88.70
2465;DHT22;1244;54.326;10.074;2023-04-30T11:53:47;19.40;84.20
2465;DHT22;1244;54.326;10.074;2023-04-30T11:56:14;18.60;90.40
2465;DHT22;1244;54.326;10.074;2023-04-30T11:58:42;19.80;92.30
2465;DHT22;1244;54.326;10.074;2023-04-30T12:16:15;19.20;99.90
2465;DHT22;1244;54.326;10.074;2023-04-30T12:18:40;19.40;99.90
2465;DHT22;1244;54.326;10.074;2023-04-30T12:30:52;18.70;99.90
2465;DHT22;1244;54.326;10.074;2023-04-30T12:33:18;18.80;99.90
2465;DHT22;1244;54.326;10.074;2023-04-30T12:38:14;18.50;99.90
2465;DHT22;1244;54.326;10.074;2023-04-30T12:40:47;19.20;99.90
2465;DHT22;1244;54.326;10.074;2023-04-30T12:48:15;18.80;99.90
2465;DHT22;1244;54.326;10.074;2023-04-30T12:50:41;18.80;99.90
2465;DHT22;1244;54.326;10.074;2023-04-30T12:53:07;19.20;99.90
2465;DHT22;1244;54.326;10.074;2023-04-30T12:55:33;19.90;99.90
2465;DHT22;1244;54.326;10.074;2023-04-30T12:58:14;19.20;99.90
2465;DHT22;1244;54.326;10.074;2023-04-30T13:13:03;19.50;99.90
2465;DHT22;1244;54.326;10.074;2023-04-30T13:17:55;20.40;99.90
2465;DHT22;1244;54.326;10.074;2023-04-30T13:20:21;20.80;99.90
2465;DHT22;1244;54.326;10.074;2023-04-30T13:22:49;19.70;99.90
2465;DHT22;1244;54.326;10.074;2023-04-30T13:25:15;19.50;99.90
2465;DHT22;1244;54.326;10.074;2023-04-30T13:27:41;19.60;99.90
2465;DHT22;1244;54.326;10.074;2023-04-30T13:44:43;18.70;99.90
2465;DHT22;1244;54.326;10.074;2023-04-30T13:49:41;19.90;99.90
2465;DHT22;1244;54.326;10.074;2023-04-30T13:52:06;19.80;99.90
2465;DHT22;1244;54.326;10.074;2023-04-30T13:54:33;19.60;99.90
2465;DHT22;1244;54.326;10.074;2023-04-30T13:56:59;19.30;99.90
2465;DHT22;1244;54.326;10.074;2023-04-30T13:59:24;18.70;99.90
2465;DHT22;1244;54.326;10.074;2023-04-30T14:01:50;18.80;99.90
2465;DHT22;1244;54.326;10.074;2023-04-30T14:04:15;18.40;99.90
2465;DHT22;1244;54.326;10.074;2023-04-30T14:06:41;18.50;97.60
2465;DHT22;1244;54.326;10.074;2023-04-30T14:09:07;18.70;99.00
2465;DHT22;1244;54.326;10.074;2023-04-30T14:11:33;19.30;99.90
2465;DHT22;1244;54.326;10.074;2023-04-30T14:13:58;18.50;99.30
2465;DHT22;1244;54.326;10.074;2023-04-30T14:16:24;18.30;99.90
2465;DHT22;1244;54.326;10.074;2023-04-30T14:18:50;18.10;99.40
2465;DHT22;1244;54.326;10.074;2023-04-30T14:21:15;18.30;98.40
2465;DHT22;1244;54.326;10.074;2023-04-30T14:23:41;18.70;99.00
2465;DHT22;1244;54.326;10.074;2023-04-30T14:26:06;18.50;99.20
2465;DHT22;1244;54.326;10.074;2023-04-30T14:28:32;18.30;96.90
2465;DHT22;1244;54.326;10.074;2023-04-30T14:30:58;17.50;98.20
2465;DHT22;1244;54.326;10.074;2023-04-30T14:33:23;18.20;99.90
2465;DHT22;1244;54.326;10.074;2023-04-30T14:35:49;17.60;99.10
2465;DHT22;1244;54.326;10.074;2023-04-30T14:38:14;17.20;97.70
2465;DHT22;1244;54.326;10.074;2023-04-30T14:40:41;17.70;97.80
2465;DHT22;1244;54.326;10.074;2023-04-30T14:43:07;17.40;99.90
2465;DHT22;1244;54.326;10.074;2023-04-30T14:45:33;17.10;99.40
2465;DHT22;1244;54.326;10.074;2023-04-30T14:47:58;16.80;99.90
2465;DHT22;1244;54.326;10.074;2023-04-30T14:50:24;17.30;99.90
2465;DHT22;1244;54.326;10.074;2023-04-30T14:52:49;18.10;99.90
2465;DHT22;1244;54.326;10.074;2023-04-30T14:55:15;18.40;99.90
2465;DHT22;1244;54.326;10.074;2023-04-30T14:57:41;17.90;99.90
2465;DHT22;1244;54.326;10.074;2023-04-30T15:00:07;17.70;99.90
2465;DHT22;1244;54.326;10.074;2023-04-30T15:02:32;17.40;99.90
2465;DHT22;1244;54.326;10.074;2023-04-30T15:04:58;17.50;99.90
2465;DHT22;1244;54.326;10.074;2023-04-30T15:07:23;17.70;99.90
2465;DHT22;1244;54.326;10.074;2023-04-30T15:09:49;17.80;99.90
2465;DHT22;1244;54.326;10.074;2023-04-30T15:12:15;16.90;99.90
2465;DHT22;1244;54.326;10.074;2023-04-30T15:14:40;16.80;99.90
2465;DHT22;1244;54.326;10.074;2023-04-30T15:17:06;17.20;99.90
2465;DHT22;1244;54.326;10.074;2023-04-30T15:19:31;16.70;99.90
2465;DHT22;1244;54.326;10.074;2023-04-30T15:21:57;16.90;99.90
2465;DHT22;1244;54.326;10.074;2023-04-30T15:24:22;16.70;99.90
2465;DHT22;1244;54.326;10.074;2023-04-30T15:26:48;16.90;99.90
2465;DHT22;1244;54.326;10.074;2023-04-30T15:29:15;16.70;99.90
2465;DHT22;1244;54.326;10.074;2023-04-30T15:31:41;16.50;99.90
2465;DHT22;1244;54.326;10.074;2023-04-30T15:34:06;16.10;99.90
2465;DHT22;1244;54.326;10.074;2023-04-30T15:36:32;14.80;99.90
2465;DHT22;1244;54.326;10.074;2023-04-30T15:38:57;15.50;99.90
2465;DHT22;1244;54.326;10.074;2023-04-30T15:41:23;15.00;99.90
2465;DHT22;1244;54.326;10.074;2023-04-30T15:43:48;15.10;99.90
2465;DHT22;1244;54.326;10.074;2023-04-30T15:46:14;15.50;99.90
2465;DHT22;1244;54.326;10.074;2023-04-30T15:48:40;15.70;99.90
2465;DHT22;1244;54.326;10.074;2023-04-30T15:51:05;15.40;99.90
2465;DHT22;1244;54.326;10.074;2023-04-30T15:53:31;14.80;99.90
2465;DHT22;1244;54.326;10.074;2023-04-30T15:55:58;15.00;99.90
2465;DHT22;1244;54.326;10.074;2023-04-30T15:58:24;15.00;99.90
2465;DHT22;1244;54.326;10.074;2023-04-30T16:00:49;14.80;99.90
2465;DHT22;1244;54.326;10.074;2023-04-30T16:03:15;15.10;99.90
2465;DHT22;1244;54.326;10.074;2023-04-30T16:05:40;14.80;99.90
2465;DHT22;1244;54.326;10.074;2023-04-30T16:08:07;15.00;99.90
2465;DHT22;1244;54.326;10.074;2023-04-30T16:10:33;14.80;99.90
2465;DHT22;1244;54.326;10.074;2023-04-30T16:12:59;15.00;99.90
2465;DHT22;1244;54.326;10.074;2023-04-30T16:15:24;15.00;99.90
2465;DHT22;1244;54.326;10.074;2023-04-30T16:17:50;14.40;99.90
2465;DHT22;1244;54.326;10.074;2023-04-30T16:20:16;14.50;99.90
2465;DHT22;1244;54.326;10.074;2023-04-30T16:22:41;14.40;99.90
2465;DHT22;1244;54.326;10.074;2023-04-30T16:25:07;14.40;99.90
2465;DHT22;1244;54.326;10.074;2023-04-30T16:27:34;14.50;99.90
2465;DHT22;1244;54.326;10.074;2023-04-30T16:30:00;14.20;99.90
2465;DHT22;1244;54.326;10.074;2023-04-30T16:32:26;13.90;99.90
2465;DHT22;1244;54.326;10.074;2023-04-30T16:34:52;14.20;99.90
2465;DHT22;1244;54.326;10.074;2023-04-30T16:37:17;14.30;99.90
2465;DHT22;1244;54.326;10.074;2023-04-30T16:39:42;14.20;99.90
2465;DHT22;1244;54.326;10.074;2023-04-30T16:42:08;14.30;99.90
2465;DHT22;1244;54.326;10.074;2023-04-30T16:44:34;14.30;99.90
2465;DHT22;1244;54.326;10.074;2023-04-30T16:46:59;14.30;99.90
2465;DHT22;1244;54.326;10.074;2023-04-30T16:49:25;14.20;99.90
2465;DHT22;1244;54.326;10.074;2023-04-30T16:51:50;14.10;99.90
2465;DHT22;1244;54.326;10.074;2023-04-30T16:54:16;14.10;99.90
2465;DHT22;1244;54.326;10.074;2023-04-30T16:56:42;14.00;99.90
2465;DHT22;1244;54.326;10.074;2023-04-30T16:59:07;13.90;99.90
2465;DHT22;1244;54.326;10.074;2023-04-30T17:01:33;13.90;99.90
2465;DHT22;1244;54.326;10.074;2023-04-30T17:03:59;13.80;99.90
2465;DHT22;1244;54.326;10.074;2023-04-30T17:06:24;13.80;99.90
2465;DHT22;1244;54.326;10.074;2023-04-30T17:08:50;13.80;99.90
2465;DHT22;1244;54.326;10.074;2023-04-30T17:11:17;13.80;99.90
2465;DHT22;1244;54.326;10.074;2023-04-30T17:13:45;13.80;99.90
2465;DHT22;1244;54.326;10.074;2023-04-30T17:16:11;13.40;99.90
2465;DHT22;1244;54.326;10.074;2023-04-30T17:18:36;13.60;99.90